sensor_id;sensor_type;location;lat;lon;timestamp;pressure;altitude;pressure_sealevel;temperature;humidity
23953;BME280;12163;49.316;6.092;2023-02-08T00:02:00;101431.69;;;0.69;56.56
23953;BME280;12163;49.316;6.092;2023-02-08T00:04:27;101430.03;;;0.68;56.58
23953;BME280;12163;49.316;6.092;2023-02-08T00:06:54;101426.69;;;0.66;56.77
23953;BME280;12163;49.316;6.092;2023-02-08T00:09:20;101433.69;;;0.67;56.77
23953;BME280;12163;49.316;6.092;2023-02-08T00:11:47;101435.34;;;0.68;56.42
23953;BME280;12163;49.316;6.092;2023-02-08T00:14:13;101435.34;;;0.68;56.88
23953;BME280;12163;49.316;6.092;2023-02-08T00:16:40;101426.69;;;0.66;56.65
23953;BME280;12163;49.316;6.092;2023-02-08T00:19:07;101436.69;;;0.64;56.44
23953;BME280;12163;49.316;6.092;2023-02-08T00:21:33;101430.25;;;0.58;56.76
23953;BME280;12163;49.316;6.092;2023-02-08T00:24:00;101434.25;;;0.54;56.83
23953;BME280;12163;49.316;6.092;2023-02-08T00:26:26;101436.59;;;0.49;57.03
23953;BME280;12163;49.316;6.092;2023-02-08T00:28:53;101433.28;;;0.47;57.02
23953;BME280;12163;49.316;6.092;2023-02-08T00:31:20;101435.78;;;0.49;56.96
23953;BME280;12163;49.316;6.092;2023-02-08T00:33:47;101437.81;;;0.47;57.00
23953;BME280;12163;49.316;6.092;2023-02-08T00:36:14;101433.50;;;0.46;57.04
23953;BME280;12163;49.316;6.092;2023-02-08T00:38:40;101426.53;;;0.45;57.04
23953;BME280;12163;49.316;6.092;2023-02-08T00:41:07;101434.66;;;0.43;57.04
23953;BME280;12163;49.316;6.092;2023-02-08T00:43:34;101434.00;;;0.41;57.11
23953;BME280;12163;49.316;6.092;2023-02-08T00:46:01;101419.25;;;0.39;57.34
23953;BME280;12163;49.316;6.092;2023-02-08T00:48:28;101423.72;;;0.38;57.47
23953;BME280;12163;49.316;6.092;2023-02-08T00:53:27;101422.09;;;0.37;57.43
23953;BME280;12163;49.316;6.092;2023-02-08T00:55:54;101419.59;;;0.36;57.45
23953;BME280;12163;49.316;6.092;2023-02-08T00:58:21;101411.13;;;0.32;57.33
23953;BME280;12163;49.316;6.092;2023-02-08T01:00:51;101423.94;;;0.29;57.45
23953;BME280;12163;49.316;6.092;2023-02-08T01:03:20;101411.69;;;0.28;57.46
23953;BME280;12163;49.316;6.092;2023-02-08T01:05:47;101427.59;;;0.28;57.55
23953;BME280;12163;49.316;6.092;2023-02-08T01:08:13;101417.78;;;0.28;57.87
23953;BME280;12163;49.316;6.092;2023-02-08T01:10:40;101421.66;;;0.26;57.88
23953;BME280;12163;49.316;6.092;2023-02-08T01:13:08;101423.81;;;0.22;57.94
23953;BME280;12163;49.316;6.092;2023-02-08T01:15:35;101419.00;;;0.18;58.16
23953;BME280;12163;49.316;6.092;2023-02-08T01:18:02;101426.97;;;0.18;58.40
23953;BME280;12163;49.316;6.092;2023-02-08T01:20:29;101421.19;;;0.14;58.52
23953;BME280;12163;49.316;6.092;2023-02-08T01:22:56;101421.19;;;0.14;58.35
23953;BME280;12163;49.316;6.092;2023-02-08T01:25:22;101425.66;;;0.14;58.28
23953;BME280;12163;49.316;6.092;2023-02-08T01:27:49;101422.38;;;0.12;58.28
23953;BME280;12163;49.316;6.092;2023-02-08T01:30:16;101411.91;;;0.10;58.00
23953;BME280;12163;49.316;6.092;2023-02-08T01:32:43;101422.72;;;0.09;58.27
23953;BME280;12163;49.316;6.092;2023-02-08T01:35:09;101410.44;;;0.08;58.04
23953;BME280;12163;49.316;6.092;2023-02-08T01:37:36;101406.13;;;0.07;57.97
23953;BME280;12163;49.316;6.092;2023-02-08T01:40:03;101403.63;;;0.05;57.92
23953;BME280;12163;49.316;6.092;2023-02-08T01:42:30;101402.19;;;0.03;58.11
23953;BME280;12163;49.316;6.092;2023-02-08T01:47:44;101400.34;;;0.03;58.16
23953;BME280;12163;49.316;6.092;2023-02-08T01:50:13;101396.22;;;0.01;58.10
23953;BME280;12163;49.316;6.092;2023-02-08T01:52:41;101400.53;;;0.02;58.17
23953;BME280;12163;49.316;6.092;2023-02-08T01:55:17;101401.69;;;-0.01;57.87
23953;BME280;12163;49.316;6.092;2023-02-08T01:57:48;101396.53;;;-0.02;58.21
23953;BME280;12163;49.316;6.092;2023-02-08T02:00:20;101397.72;;;-0.04;58.56
23953;BME280;12163;49.316;6.092;2023-02-08T02:02:49;101401.72;;;-0.08;58.49
23953;BME280;12163;49.316;6.092;2023-02-08T02:05:31;101403.88;;;-0.12;58.21
23953;BME280;12163;49.316;6.092;2023-02-08T02:07:59;101401.88;;;-0.10;58.27
23953;BME280;12163;49.316;6.092;2023-02-08T02:10:29;101398.88;;;-0.07;58.26
23953;BME280;12163;49.316;6.092;2023-02-08T02:13:02;101398.06;;;-0.07;58.57
23953;BME280;12163;49.316;6.092;2023-02-08T02:15:29;101410.50;;;-0.08;58.43
23953;BME280;12163;49.316;6.092;2023-02-08T02:17:55;101391.13;;;-0.08;58.61
23953;BME280;12163;49.316;6.092;2023-02-08T02:37:14;101395.97;;;-0.20;58.20
23953;BME280;12163;49.316;6.092;2023-02-08T02:45:22;101383.03;;;-0.23;58.45
23953;BME280;12163;49.316;6.092;2023-02-08T02:48:11;101382.38;;;-0.25;58.41
23953;BME280;12163;49.316;6.092;2023-02-08T02:50:46;101373.41;;;-0.24;58.27
23953;BME280;12163;49.316;6.092;2023-02-08T02:53:37;101372.41;;;-0.23;58.22
23953;BME280;12163;49.316;6.092;2023-02-08T02:56:17;101375.91;;;-0.22;58.03
23953;BME280;12163;49.316;6.092;2023-02-08T02:58:46;101376.91;;;-0.23;58.51
23953;BME280;12163;49.316;6.092;2023-02-08T03:01:12;101363.00;;;-0.25;58.30
23953;BME280;12163;49.316;6.092;2023-02-08T03:03:39;101371.75;;;-0.25;58.25
23953;BME280;12163;49.316;6.092;2023-02-08T03:06:11;101367.63;;;-0.27;58.57
23953;BME280;12163;49.316;6.092;2023-02-08T03:09:04;101370.94;;;-0.25;58.90
23953;BME280;12163;49.316;6.092;2023-02-08T03:11:31;101365.16;;;-0.29;58.62
23953;BME280;12163;49.316;6.092;2023-02-08T03:21:50;101356.88;;;-0.34;59.07
23953;BME280;12163;49.316;6.092;2023-02-08T03:27:11;101362.84;;;-0.32;58.90
23953;BME280;12163;49.316;6.092;2023-02-08T03:30:25;101368.78;;;-0.30;58.72
23953;BME280;12163;49.316;6.092;2023-02-08T03:33:03;101371.63;;;-0.31;58.66
23953;BME280;12163;49.316;6.092;2023-02-08T03:35:37;101368.44;;;-0.27;58.33
23953;BME280;12163;49.316;6.092;2023-02-08T03:38:10;101369.28;;;-0.26;58.33
23953;BME280;12163;49.316;6.092;2023-02-08T03:40:41;101363.16;;;-0.27;57.81
23953;BME280;12163;49.316;6.092;2023-02-08T03:43:19;101365.34;;;-0.30;57.77
23953;BME280;12163;49.316;6.092;2023-02-08T03:46:05;101367.16;;;-0.31;57.91
23953;BME280;12163;49.316;6.092;2023-02-08T03:48:35;101364.69;;;-0.32;57.80
23953;BME280;12163;49.316;6.092;2023-02-08T03:51:05;101358.53;;;-0.33;58.19
23953;BME280;12163;49.316;6.092;2023-02-08T03:53:34;101359.88;;;-0.37;58.25
23953;BME280;12163;49.316;6.092;2023-02-08T03:56:14;101360.88;;;-0.38;58.37
23953;BME280;12163;49.316;6.092;2023-02-08T03:58:48;101367.19;;;-0.39;58.10
23953;BME280;12163;49.316;6.092;2023-02-08T04:01:26;101364.34;;;-0.37;58.09
23953;BME280;12163;49.316;6.092;2023-02-08T04:03:55;101354.88;;;-0.32;57.91
23953;BME280;12163;49.316;6.092;2023-02-08T04:06:23;101356.53;;;-0.31;57.83
23953;BME280;12163;49.316;6.092;2023-02-08T04:08:49;101351.88;;;-0.29;57.77
23953;BME280;12163;49.316;6.092;2023-02-08T04:11:16;101354.06;;;-0.32;57.77
23953;BME280;12163;49.316;6.092;2023-02-08T04:13:43;101346.44;;;-0.35;57.55
23953;BME280;12163;49.316;6.092;2023-02-08T04:16:12;101347.44;;;-0.36;57.87
23953;BME280;12163;49.316;6.092;2023-02-08T04:18:39;101348.63;;;-0.39;57.93
23953;BME280;12163;49.316;6.092;2023-02-08T04:21:05;101346.13;;;-0.40;57.76
23953;BME280;12163;49.316;6.092;2023-02-08T04:23:32;101346.31;;;-0.42;58.41
23953;BME280;12163;49.316;6.092;2023-02-08T04:25:59;101342.66;;;-0.41;57.88
23953;BME280;12163;49.316;6.092;2023-02-08T04:28:25;101347.31;;;-0.43;57.87
23953;BME280;12163;49.316;6.092;2023-02-08T04:30:54;101337.50;;;-0.42;58.09
23953;BME280;12163;49.316;6.092;2023-02-08T04:33:22;101343.00;;;-0.44;57.98
23953;BME280;12163;49.316;6.092;2023-02-08T04:35:48;101340.66;;;-0.47;57.89
23953;BME280;12163;49.316;6.092;2023-02-08T04:38:15;101339.00;;;-0.48;57.93
23953;BME280;12163;49.316;6.092;2023-02-08T04:40:42;101335.72;;;-0.50;57.30
23953;BME280;12163;49.316;6.092;2023-02-08T04:43:08;101344.31;;;-0.48;57.38
23953;BME280;12163;49.316;6.092;2023-02-08T04:45:35;101345.97;;;-0.47;57.53
23953;BME280;12163;49.316;6.092;2023-02-08T04:48:03;101336.22;;;-0.46;56.85
23953;BME280;12163;49.316;6.092;2023-02-08T04:50:33;101347.31;;;-0.43;57.14
23953;BME280;12163;49.316;6.092;2023-02-08T04:53:00;101341.66;;;-0.40;56.95
23953;BME280;12163;49.316;6.092;2023-02-08T04:55:27;101340.66;;;-0.39;56.58
23953;BME280;12163;49.316;6.092;2023-02-08T04:57:53;101338.66;;;-0.37;56.61
23953;BME280;12163;49.316;6.092;2023-02-08T05:00:20;101339.31;;;-0.35;56.83
23953;BME280;12163;49.316;6.092;2023-02-08T05:02:46;101330.84;;;-0.30;56.49
23953;BME280;12163;49.316;6.092;2023-02-08T05:05:13;101327.84;;;-0.27;56.49
23953;BME280;12163;49.316;6.092;2023-02-08T05:07:40;101325.66;;;-0.24;56.21
23953;BME280;12163;49.316;6.092;2023-02-08T05:10:07;101325.34;;;-0.21;55.81
23953;BME280;12163;49.316;6.092;2023-02-08T05:12:33;101328.66;;;-0.19;55.97
23953;BME280;12163;49.316;6.092;2023-02-08T05:15:00;101328.00;;;-0.21;55.74
23953;BME280;12163;49.316;6.092;2023-02-08T05:17:27;101324.84;;;-0.24;55.35
23953;BME280;12163;49.316;6.092;2023-02-08T05:19:53;101330.31;;;-0.26;55.37
23953;BME280;12163;49.316;6.092;2023-02-08T05:22:20;101323.53;;;-0.28;55.90
23953;BME280;12163;49.316;6.092;2023-02-08T05:24:47;101321.91;;;-0.29;55.66
23953;BME280;12163;49.316;6.092;2023-02-08T05:27:13;101316.09;;;-0.33;55.74
23953;BME280;12163;49.316;6.092;2023-02-08T05:29:40;101332.34;;;-0.36;55.92
23953;BME280;12163;49.316;6.092;2023-02-08T05:32:06;101335.34;;;-0.39;56.25
23953;BME280;12163;49.316;6.092;2023-02-08T05:34:33;101331.41;;;-0.43;56.36
23953;BME280;12163;49.316;6.092;2023-02-08T05:37:00;101326.94;;;-0.50;56.69
23953;BME280;12163;49.316;6.092;2023-02-08T05:39:26;101338.72;;;-0.53;56.42
23953;BME280;12163;49.316;6.092;2023-02-08T05:41:53;101337.41;;;-0.57;56.94
23953;BME280;12163;49.316;6.092;2023-02-08T05:44:19;101341.06;;;-0.58;56.27
23953;BME280;12163;49.316;6.092;2023-02-08T05:46:46;101345.50;;;-0.50;56.31
23953;BME280;12163;49.316;6.092;2023-02-08T05:49:13;101337.03;;;-0.46;55.93
23953;BME280;12163;49.316;6.092;2023-02-08T05:51:40;101346.97;;;-0.40;56.07
23953;BME280;12163;49.316;6.092;2023-02-08T05:54:07;101345.44;;;-0.34;55.21
23953;BME280;12163;49.316;6.092;2023-02-08T05:56:33;101345.47;;;-0.04;58.48
23953;BME280;12163;49.316;6.092;2023-02-08T05:59:00;101337.25;;;1.18;62.61
23953;BME280;12163;49.316;6.092;2023-02-08T06:01:27;101334.72;;;2.38;58.95
23953;BME280;12163;49.316;6.092;2023-02-08T06:03:53;101328.53;;;2.73;55.20
23953;BME280;12163;49.316;6.092;2023-02-08T06:06:20;101328.47;;;2.67;52.51
23953;BME280;12163;49.316;6.092;2023-02-08T06:08:47;101329.28;;;2.25;51.13
23953;BME280;12163;49.316;6.092;2023-02-08T06:11:13;101324.66;;;1.84;51.39
23953;BME280;12163;49.316;6.092;2023-02-08T06:13:40;101340.41;;;1.50;51.73
23953;BME280;12163;49.316;6.092;2023-02-08T06:16:07;101336.88;;;1.21;51.78
23953;BME280;12163;49.316;6.092;2023-02-08T06:18:33;101333.63;;;0.96;51.88
23953;BME280;12163;49.316;6.092;2023-02-08T06:21:00;101342.28;;;0.76;51.72
23953;BME280;12163;49.316;6.092;2023-02-08T06:23:27;101346.06;;;0.59;52.38
23953;BME280;12163;49.316;6.092;2023-02-08T06:25:53;101346.66;;;0.46;52.18
23953;BME280;12163;49.316;6.092;2023-02-08T06:28:20;101356.88;;;0.35;52.18
23953;BME280;12163;49.316;6.092;2023-02-08T06:30:50;101348.47;;;0.23;52.33
23953;BME280;12163;49.316;6.092;2023-02-08T06:33:18;101354.66;;;0.16;52.70
23953;BME280;12163;49.316;6.092;2023-02-08T06:35:54;101352.06;;;0.08;52.61
23953;BME280;12163;49.316;6.092;2023-02-08T06:38:21;101349.38;;;0.38;53.80
23953;BME280;12163;49.316;6.092;2023-02-08T06:40:48;101353.81;;;0.46;52.59
23953;BME280;12163;49.316;6.092;2023-02-08T06:43:15;101359.81;;;0.40;51.87
23953;BME280;12163;49.316;6.092;2023-02-08T06:45:45;101360.22;;;0.29;52.01
23953;BME280;12163;49.316;6.092;2023-02-08T06:48:13;101359.59;;;0.19;52.47
23953;BME280;12163;49.316;6.092;2023-02-08T06:50:40;101369.28;;;0.12;52.88
23953;BME280;12163;49.316;6.092;2023-02-08T06:53:07;101366.69;;;0.04;52.82
23953;BME280;12163;49.316;6.092;2023-02-08T06:55:34;101367.34;;;-0.02;52.58
23953;BME280;12163;49.316;6.092;2023-02-08T06:58:00;101372.00;;;-0.04;52.45
23953;BME280;12163;49.316;6.092;2023-02-08T07:00:27;101376.66;;;-0.06;52.42
23953;BME280;12163;49.316;6.092;2023-02-08T07:02:53;101374.19;;;-0.07;52.54
23953;BME280;12163;49.316;6.092;2023-02-08T07:05:20;101377.00;;;-0.09;51.67
23953;BME280;12163;49.316;6.092;2023-02-08T07:07:47;101375.66;;;-0.05;51.75
23953;BME280;12163;49.316;6.092;2023-02-08T07:10:15;101379.97;;;-0.04;51.92
23953;BME280;12163;49.316;6.092;2023-02-08T07:12:41;101374.66;;;-0.04;51.94
23953;BME280;12163;49.316;6.092;2023-02-08T07:15:08;101375.00;;;-0.07;51.99
23953;BME280;12163;49.316;6.092;2023-02-08T07:17:35;101366.41;;;-0.09;52.05
23953;BME280;12163;49.316;6.092;2023-02-08T07:20:02;101372.06;;;-0.12;51.59
23953;BME280;12163;49.316;6.092;2023-02-08T07:22:28;101366.09;;;-0.14;51.64
23953;BME280;12163;49.316;6.092;2023-02-08T07:24:55;101369.22;;;-0.10;52.09
23953;BME280;12163;49.316;6.092;2023-02-08T07:27:22;101366.75;;;-0.12;51.78
23953;BME280;12163;49.316;6.092;2023-02-08T07:29:51;101366.41;;;-0.09;51.54
23953;BME280;12163;49.316;6.092;2023-02-08T07:32:17;101376.66;;;-0.06;51.43
23953;BME280;12163;49.316;6.092;2023-02-08T07:34:44;101373.50;;;-0.02;51.52
23953;BME280;12163;49.316;6.092;2023-02-08T07:37:11;101376.78;;;0.00;51.57
23953;BME280;12163;49.316;6.092;2023-02-08T07:39:38;101381.75;;;0.03;51.28
23953;BME280;12163;49.316;6.092;2023-02-08T07:42:07;101375.28;;;0.06;51.28
23953;BME280;12163;49.316;6.092;2023-02-08T07:44:35;101377.41;;;0.10;51.60
23953;BME280;12163;49.316;6.092;2023-02-08T07:47:03;101378.38;;;0.17;51.34
23953;BME280;12163;49.316;6.092;2023-02-08T07:49:29;101382.50;;;0.20;51.70
23953;BME280;12163;49.316;6.092;2023-02-08T07:51:58;101376.03;;;0.22;51.40
23953;BME280;12163;49.316;6.092;2023-02-08T07:54:25;101375.19;;;0.22;51.77
23953;BME280;12163;49.316;6.092;2023-02-08T07:56:52;101375.19;;;0.22;51.72
23953;BME280;12163;49.316;6.092;2023-02-08T07:59:18;101379.16;;;0.26;51.75
23953;BME280;12163;49.316;6.092;2023-02-08T08:01:45;101378.81;;;0.29;51.98
23953;BME280;12163;49.316;6.092;2023-02-08T08:04:12;101377.47;;;0.33;51.61
23953;BME280;12163;49.316;6.092;2023-02-08T08:06:38;101369.78;;;0.38;51.94
23953;BME280;12163;49.316;6.092;2023-02-08T08:09:05;101369.91;;;0.44;51.93
23953;BME280;12163;49.316;6.092;2023-02-08T08:11:31;101363.09;;;0.50;51.99
23953;BME280;12163;49.316;6.092;2023-02-08T08:13:58;101374.66;;;0.57;52.01
23953;BME280;12163;49.316;6.092;2023-02-08T08:16:25;101362.13;;;0.65;52.16
23953;BME280;12163;49.316;6.092;2023-02-08T08:18:51;101366.38;;;0.74;52.14
23953;BME280;12163;49.316;6.092;2023-02-08T08:21:18;101366.50;;;0.81;51.38
23953;BME280;12163;49.316;6.092;2023-02-08T08:23:45;101366.09;;;0.92;51.35
23953;BME280;12163;49.316;6.092;2023-02-08T08:26:14;101351.69;;;1.01;51.41
23953;BME280;12163;49.316;6.092;2023-02-08T08:28:41;101349.31;;;1.06;51.17
23953;BME280;12163;49.316;6.092;2023-02-08T08:31:13;101352.94;;;1.13;50.92
23953;BME280;12163;49.316;6.092;2023-02-08T08:33:40;101352.00;;;1.20;50.84
23953;BME280;12163;49.316;6.092;2023-02-08T08:36:07;101345.78;;;1.28;50.48
23953;BME280;12163;49.316;6.092;2023-02-08T08:38:34;101345.72;;;1.36;50.25
23953;BME280;12163;49.316;6.092;2023-02-08T08:41:12;101354.25;;;1.46;49.69
23953;BME280;12163;49.316;6.092;2023-02-08T08:43:40;101358.13;;;1.58;49.40
23953;BME280;12163;49.316;6.092;2023-02-08T08:46:07;101341.66;;;1.68;49.64
23953;BME280;12163;49.316;6.092;2023-02-08T08:48:35;101351.88;;;1.79;49.53
23953;BME280;12163;49.316;6.092;2023-02-08T08:51:02;101344.41;;;1.89;49.21
23953;BME280;12163;49.316;6.092;2023-02-08T08:53:29;101341.63;;;1.97;48.53
23953;BME280;12163;49.316;6.092;2023-02-08T08:55:55;101341.34;;;2.07;48.20
23953;BME280;12163;49.316;6.092;2023-02-08T08:58:22;101340.03;;;2.17;48.20
23953;BME280;12163;49.316;6.092;2023-02-08T09:00:49;101339.34;;;2.30;48.27
23953;BME280;12163;49.316;6.092;2023-02-08T09:03:16;101338.66;;;2.42;47.68
23953;BME280;12163;49.316;6.092;2023-02-08T09:05:43;101326.69;;;2.53;46.91
23953;BME280;12163;49.316;6.092;2023-02-08T09:08:09;101317.09;;;2.58;47.00
23953;BME280;12163;49.316;6.092;2023-02-08T09:10:36;101316.97;;;2.66;46.72
23953;BME280;12163;49.316;6.092;2023-02-08T09:13:02;101315.00;;;2.75;46.53
23953;BME280;12163;49.316;6.092;2023-02-08T09:15:29;101309.97;;;2.86;46.00
23953;BME280;12163;49.316;6.092;2023-02-08T09:17:56;101311.25;;;2.90;45.65
23953;BME280;12163;49.316;6.092;2023-02-08T09:20:23;101309.84;;;2.94;45.73
23953;BME280;12163;49.316;6.092;2023-02-08T09:22:49;101308.88;;;3.02;45.30
23953;BME280;12163;49.316;6.092;2023-02-08T09:25:16;101309.53;;;3.10;44.90
23953;BME280;12163;49.316;6.092;2023-02-08T09:27:42;101306.28;;;3.15;45.30
23953;BME280;12163;49.316;6.092;2023-02-08T09:30:09;101314.34;;;3.21;44.87
23953;BME280;12163;49.316;6.092;2023-02-08T09:32:36;101314.59;;;3.26;44.76
23953;BME280;12163;49.316;6.092;2023-02-08T09:35:06;101310.13;;;3.33;44.72
23953;BME280;12163;49.316;6.092;2023-02-08T09:37:33;101310.59;;;3.43;44.29
23953;BME280;12163;49.316;6.092;2023-02-08T09:39:59;101308.78;;;3.50;44.24
23953;BME280;12163;49.316;6.092;2023-02-08T09:42:37;101309.00;;;3.55;43.65
23953;BME280;12163;49.316;6.092;2023-02-08T09:45:22;101316.66;;;3.58;43.72
23953;BME280;12163;49.316;6.092;2023-02-08T09:47:59;101302.50;;;3.64;43.33
23953;BME280;12163;49.316;6.092;2023-02-08T09:50:55;101302.72;;;3.69;43.90
23953;BME280;12163;49.316;6.092;2023-02-08T09:53:36;101302.16;;;3.80;43.30
23953;BME280;12163;49.316;6.092;2023-02-08T09:56:09;101296.66;;;3.88;42.35
23953;BME280;12163;49.316;6.092;2023-02-08T09:58:50;101297.28;;;3.90;42.42
23953;BME280;12163;49.316;6.092;2023-02-08T10:01:27;101295.84;;;3.94;41.93
23953;BME280;12163;49.316;6.092;2023-02-08T10:04:06;101289.06;;;3.98;41.92
23953;BME280;12163;49.316;6.092;2023-02-08T10:06:34;101296.31;;;4.04;41.64
23953;BME280;12163;49.316;6.092;2023-02-08T10:09:04;101298.78;;;4.12;41.99
23953;BME280;12163;49.316;6.092;2023-02-08T10:20:03;101285.47;;;4.31;41.62
23953;BME280;12163;49.316;6.092;2023-02-08T10:33:36;101277.28;;;4.85;41.76
23953;BME280;12163;49.316;6.092;2023-02-08T10:36:18;101275.47;;;4.92;41.42
23953;BME280;12163;49.316;6.092;2023-02-08T10:38:48;101279.34;;;5.02;41.27
23953;BME280;12163;49.316;6.092;2023-02-08T10:41:20;101273.59;;;5.11;41.43
23953;BME280;12163;49.316;6.092;2023-02-08T10:50:06;101255.44;;;5.26;39.51
23953;BME280;12163;49.316;6.092;2023-02-08T10:52:37;101252.53;;;5.34;39.47
23953;BME280;12163;49.316;6.092;2023-02-08T10:55:12;101251.69;;;5.40;38.89
23953;BME280;12163;49.316;6.092;2023-02-08T10:57:40;101252.47;;;5.47;38.57
23953;BME280;12163;49.316;6.092;2023-02-08T11:00:21;101241.34;;;5.57;38.30
23953;BME280;12163;49.316;6.092;2023-02-08T11:02:51;101247.88;;;5.67;37.48
23953;BME280;12163;49.316;6.092;2023-02-08T11:08:09;101235.59;;;5.97;37.05
23953;BME280;12163;49.316;6.092;2023-02-08T11:10:38;101237.19;;;6.11;36.19
23953;BME280;12163;49.316;6.092;2023-02-08T11:13:17;101239.44;;;6.14;35.69
23953;BME280;12163;49.316;6.092;2023-02-08T11:15:47;101231.56;;;6.19;35.15
23953;BME280;12163;49.316;6.092;2023-02-08T11:18:22;101235.66;;;6.28;35.66
23953;BME280;12163;49.316;6.092;2023-02-08T11:20:52;101229.41;;;6.34;35.02
23953;BME280;12163;49.316;6.092;2023-02-08T11:23:32;101223.41;;;6.39;35.11
23953;BME280;12163;49.316;6.092;2023-02-08T11:26:33;101220.72;;;6.39;34.57
23953;BME280;12163;49.316;6.092;2023-02-08T11:29:24;101219.41;;;6.48;34.31
23953;BME280;12163;49.316;6.092;2023-02-08T11:34:26;101211.47;;;6.59;33.56
23953;BME280;12163;49.316;6.092;2023-02-08T11:36:55;101209.81;;;6.58;33.71
23953;BME280;12163;49.316;6.092;2023-02-08T11:39:59;101215.19;;;6.58;34.08
23953;BME280;12163;49.316;6.092;2023-02-08T11:42:27;101205.22;;;6.65;33.16
23953;BME280;12163;49.316;6.092;2023-02-08T11:44:56;101197.72;;;6.73;33.69
23953;BME280;12163;49.316;6.092;2023-02-08T11:47:25;101197.22;;;6.83;33.44
23953;BME280;12163;49.316;6.092;2023-02-08T11:49:55;101194.63;;;6.94;32.80
23953;BME280;12163;49.316;6.092;2023-02-08T11:52:25;101190.09;;;6.95;32.88
23953;BME280;12163;49.316;6.092;2023-02-08T11:54:53;101197.03;;;7.02;33.10
23953;BME280;12163;49.316;6.092;2023-02-08T11:57:24;101188.69;;;7.10;32.25
23953;BME280;12163;49.316;6.092;2023-02-08T12:00:16;101182.06;;;7.13;32.33
23953;BME280;12163;49.316;6.092;2023-02-08T12:02:43;101185.50;;;7.20;32.94
23953;BME280;12163;49.316;6.092;2023-02-08T12:05:14;101174.81;;;7.31;32.06
23953;BME280;12163;49.316;6.092;2023-02-08T12:08:03;101169.72;;;7.41;32.36
23953;BME280;12163;49.316;6.092;2023-02-08T12:16:35;101161.09;;;7.69;32.20
23953;BME280;12163;49.316;6.092;2023-02-08T12:22:13;101167.63;;;7.91;31.29
23953;BME280;12163;49.316;6.092;2023-02-08T12:35:52;101156.19;;;8.25;30.10
23953;BME280;12163;49.316;6.092;2023-02-08T12:44:52;101154.19;;;8.20;29.77
23953;BME280;12163;49.316;6.092;2023-02-08T12:52:45;101136.78;;;8.23;30.25
23953;BME280;12163;49.316;6.092;2023-02-08T12:55:36;101134.69;;;8.25;30.40
23953;BME280;12163;49.316;6.092;2023-02-08T13:00:49;101124.63;;;8.32;30.46
23953;BME280;12163;49.316;6.092;2023-02-08T13:03:40;101124.97;;;8.35;30.41
23953;BME280;12163;49.316;6.092;2023-02-08T13:06:15;101131.63;;;8.32;29.52
23953;BME280;12163;49.316;6.092;2023-02-08T13:08:51;101119.72;;;8.29;29.76
23953;BME280;12163;49.316;6.092;2023-02-08T13:11:29;101111.06;;;8.27;29.89
23953;BME280;12163;49.316;6.092;2023-02-08T13:14:02;101104.50;;;8.23;29.62
23953;BME280;12163;49.316;6.092;2023-02-08T13:16:31;101109.38;;;8.14;30.43
23953;BME280;12163;49.316;6.092;2023-02-08T13:19:11;101106.59;;;8.21;29.66
23953;BME280;12163;49.316;6.092;2023-02-08T13:21:44;101109.06;;;8.22;29.36
23953;BME280;12163;49.316;6.092;2023-02-08T13:26:57;101099.81;;;8.30;30.16
23953;BME280;12163;49.316;6.092;2023-02-08T13:29:24;101088.03;;;8.42;29.56
23953;BME280;12163;49.316;6.092;2023-02-08T13:31:59;101098.91;;;8.58;29.41
23953;BME280;12163;49.316;6.092;2023-02-08T13:34:40;101096.19;;;8.70;29.39
23953;BME280;12163;49.316;6.092;2023-02-08T13:37:22;101081.09;;;8.80;29.08
23953;BME280;12163;49.316;6.092;2023-02-08T13:40:27;101081.16;;;8.97;28.73
23953;BME280;12163;49.316;6.092;2023-02-08T13:43:02;101072.09;;;9.26;28.86
23953;BME280;12163;49.316;6.092;2023-02-08T13:45:43;101082.53;;;9.50;28.07
23953;BME280;12163;49.316;6.092;2023-02-08T13:48:13;101066.91;;;9.80;28.18
23953;BME280;12163;49.316;6.092;2023-02-08T13:50:55;101076.59;;;10.09;27.92
23953;BME280;12163;49.316;6.092;2023-02-08T13:56:07;101074.47;;;10.82;26.68
23953;BME280;12163;49.316;6.092;2023-02-08T14:01:20;101064.59;;;11.35;26.71
23953;BME280;12163;49.316;6.092;2023-02-08T14:06:47;101053.56;;;11.63;25.73
23953;BME280;12163;49.316;6.092;2023-02-08T14:09:26;101060.59;;;11.90;25.92
23953;BME280;12163;49.316;6.092;2023-02-08T14:12:04;101049.63;;;12.07;24.48
23953;BME280;12163;49.316;6.092;2023-02-08T14:14:36;101050.28;;;12.19;24.55
23953;BME280;12163;49.316;6.092;2023-02-08T14:19:37;101049.88;;;12.37;24.22
23953;BME280;12163;49.316;6.092;2023-02-08T14:22:16;101041.09;;;12.61;24.34
23953;BME280;12163;49.316;6.092;2023-02-08T14:27:23;101042.41;;;13.05;23.61
23953;BME280;12163;49.316;6.092;2023-02-08T14:30:02;101035.13;;;13.11;22.96
23953;BME280;12163;49.316;6.092;2023-02-08T14:32:32;101031.66;;;13.30;23.18
23953;BME280;12163;49.316;6.092;2023-02-08T14:35:05;101027.38;;;13.39;23.49
23953;BME280;12163;49.316;6.092;2023-02-08T14:37:33;101036.00;;;13.31;23.82
23953;BME280;12163;49.316;6.092;2023-02-08T14:48:01;101028.75;;;13.56;23.47
23953;BME280;12163;49.316;6.092;2023-02-08T14:50:35;101017.91;;;13.61;23.02
23953;BME280;12163;49.316;6.092;2023-02-08T14:55:45;101013.88;;;13.99;23.11
23953;BME280;12163;49.316;6.092;2023-02-08T14:58:24;101010.06;;;13.85;22.47
23953;BME280;12163;49.316;6.092;2023-02-08T15:00:53;101005.16;;;13.72;22.05
23953;BME280;12163;49.316;6.092;2023-02-08T15:03:19;101008.94;;;13.51;22.20
23953;BME280;12163;49.316;6.092;2023-02-08T15:06:05;101003.38;;;13.01;22.91
23953;BME280;12163;49.316;6.092;2023-02-08T15:08:38;101014.38;;;12.33;24.34
23953;BME280;12163;49.316;6.092;2023-02-08T15:11:18;101012.34;;;11.51;25.07
23953;BME280;12163;49.316;6.092;2023-02-08T15:13:48;101006.94;;;10.82;25.26
23953;BME280;12163;49.316;6.092;2023-02-08T15:16:16;101015.31;;;10.21;25.71
23953;BME280;12163;49.316;6.092;2023-02-08T15:18:46;101013.63;;;9.71;26.33
23953;BME280;12163;49.316;6.092;2023-02-08T15:21:19;101010.13;;;9.26;26.79
23953;BME280;12163;49.316;6.092;2023-02-08T15:23:59;101012.84;;;8.86;27.19